createdAt,value
2018-12-06T00:01:54.267Z,18.43
2018-12-06T00:04:23.907Z,20.87
2018-12-06T00:06:52.275Z,22.93
2018-12-06T00:09:21.617Z,20.33
2018-12-06T00:11:49.935Z,18.73
2018-12-06T00:14:18.315Z,20.97
2018-12-06T00:19:37.216Z,18.10
2018-12-06T00:22:07.515Z,18.17
2018-12-06T00:24:43.047Z,17.30
2018-12-06T00:27:14.787Z,19.17
2018-12-06T00:45:26.035Z,18.90
2018-12-06T00:50:37.467Z,15.10
2018-12-06T00:53:08.307Z,15.07
2018-12-06T00:55:37.327Z,15.10
2018-12-06T00:58:08.806Z,17.43
2018-12-06T01:00:36.987Z,14.97
2018-12-06T01:03:07.974Z,18.27
2018-12-06T01:05:36.388Z,16.93
2018-12-06T01:08:05.574Z,19.13
2018-12-06T01:10:34.974Z,14.03
2018-12-06T01:13:13.885Z,19.57
2018-12-06T01:15:42.186Z,17.20
2018-12-06T01:18:10.666Z,16.07
2018-12-06T01:20:40.446Z,19.10
2018-12-06T01:23:12.606Z,15.87
2018-12-06T01:25:42.806Z,16.83
2018-12-06T01:28:27.127Z,17.83
2018-12-06T01:31:01.047Z,20.30
2018-12-06T01:33:32.606Z,18.53
2018-12-06T01:36:06.015Z,20.07
2018-12-06T01:38:40.014Z,18.97
2018-12-06T01:41:08.694Z,17.70
2018-12-06T01:43:37.086Z,20.47
2018-12-06T01:46:07.506Z,20.70
2018-12-06T01:48:42.586Z,19.33
2018-12-06T01:51:11.626Z,21.87
2018-12-06T01:53:40.435Z,19.63
2018-12-06T01:56:11.026Z,21.30
2018-12-06T01:58:39.466Z,20.30
2018-12-06T02:01:19.646Z,19.63
2018-12-06T02:03:48.045Z,23.33
2018-12-06T02:06:16.434Z,17.87
2018-12-06T02:08:47.770Z,20.57
2018-12-06T02:11:23.545Z,20.93
2018-12-06T02:13:54.105Z,22.70
2018-12-06T02:16:29.846Z,24.83
2018-12-06T02:19:02.185Z,24.00
2018-12-06T02:21:35.425Z,22.93
2018-12-06T02:24:06.965Z,22.43
2018-12-06T02:26:35.367Z,20.00
2018-12-06T02:29:03.825Z,21.30
2018-12-06T02:31:32.509Z,23.27
2018-12-06T02:34:01.132Z,23.77
2018-12-06T02:36:30.413Z,21.67
2018-12-06T02:38:58.614Z,20.67
2018-12-06T02:41:27.734Z,21.97
2018-12-06T02:43:57.710Z,21.43
2018-12-06T02:46:26.853Z,21.30
2018-12-06T02:48:55.153Z,18.87
2018-12-06T02:51:23.413Z,18.77
2018-12-06T02:53:51.657Z,24.17
2018-12-06T02:56:19.949Z,20.60
2018-12-06T02:58:50.293Z,18.53
2018-12-06T03:01:18.914Z,19.20
2018-12-06T03:03:54.357Z,19.30
2018-12-06T03:06:22.854Z,20.50
2018-12-06T03:08:52.453Z,21.17
2018-12-06T03:11:20.935Z,12.53
2018-12-06T03:13:49.074Z,19.87
2018-12-06T03:16:18.634Z,19.23
2018-12-06T03:18:47.519Z,19.67
2018-12-06T03:21:20.494Z,21.67
2018-12-06T03:23:48.835Z,14.90
2018-12-06T03:26:17.554Z,15.40
2018-12-06T03:28:53.874Z,19.07
2018-12-06T03:34:06.055Z,20.10
2018-12-06T03:36:34.494Z,20.87
2018-12-06T03:39:04.714Z,17.07
2018-12-06T03:41:37.339Z,14.73
2018-12-06T03:44:05.695Z,20.07
2018-12-06T03:46:34.794Z,14.97
2018-12-06T03:49:06.034Z,17.33
2018-12-06T03:51:38.823Z,15.93
2018-12-06T03:54:07.214Z,14.13
2018-12-06T03:56:41.154Z,20.00
2018-12-06T03:59:21.134Z,19.00
2018-12-06T04:01:51.574Z,14.80
2018-12-06T04:04:21.953Z,18.53
2018-12-06T04:06:50.379Z,16.47
2018-12-06T04:09:18.634Z,12.60
2018-12-06T04:11:46.914Z,15.00
2018-12-06T04:14:15.274Z,17.23
2018-12-06T04:16:43.454Z,15.37
2018-12-06T04:19:14.586Z,17.77
2018-12-06T04:21:46.277Z,14.97
2018-12-06T04:24:18.417Z,19.30
2018-12-06T04:26:47.854Z,17.70
2018-12-06T04:29:16.090Z,20.73
2018-12-06T04:31:50.496Z,21.03
2018-12-06T04:34:22.517Z,21.13
2018-12-06T04:36:50.815Z,20.63
2018-12-06T04:39:19.027Z,16.03
2018-12-06T04:41:47.527Z,20.73
2018-12-06T04:44:16.875Z,13.07
2018-12-06T04:46:45.355Z,22.13
2018-12-06T04:49:13.667Z,21.33
2018-12-06T04:51:46.535Z,21.17
2018-12-06T04:54:14.735Z,18.87
2018-12-06T04:56:43.556Z,22.13
2018-12-06T04:59:12.848Z,21.47
2018-12-06T05:01:41.776Z,24.70
2018-12-06T05:04:10.875Z,21.27
2018-12-06T05:06:53.076Z,23.17
2018-12-06T05:09:28.727Z,22.93
2018-12-06T05:12:00.596Z,21.87
2018-12-06T05:14:29.028Z,24.27
2018-12-06T05:19:34.088Z,23.77
2018-12-06T05:22:02.475Z,20.17
2018-12-06T05:24:32.875Z,18.27
2018-12-06T05:27:04.975Z,17.33
2018-12-06T05:29:40.116Z,23.97
2018-12-06T05:32:09.615Z,18.10
2018-12-06T05:34:43.927Z,19.10
2018-12-06T05:37:17.648Z,18.90
2018-12-06T05:39:55.187Z,17.90
2018-12-06T05:42:23.527Z,18.83
2018-12-06T05:44:59.126Z,15.83
2018-12-06T05:47:37.947Z,14.47
2018-12-06T05:50:19.066Z,17.73
2018-12-06T05:52:58.466Z,17.67
2018-12-06T05:55:30.482Z,19.30
2018-12-06T06:00:45.209Z,15.67
2018-12-06T06:03:23.094Z,18.37
2018-12-06T06:06:02.946Z,17.87
2018-12-06T06:09:17.706Z,17.43
2018-12-06T06:11:46.305Z,16.33
2018-12-06T06:14:18.126Z,19.30
2018-12-06T06:16:48.228Z,18.87
2018-12-06T06:19:20.655Z,16.63
2018-12-06T06:21:50.714Z,16.60
2018-12-06T06:24:23.346Z,15.93
2018-12-06T06:26:53.115Z,16.97
2018-12-06T06:29:21.726Z,18.97
2018-12-06T06:31:50.214Z,21.93
2018-12-06T06:34:19.573Z,20.00
2018-12-06T06:36:51.733Z,24.60
2018-12-06T06:39:33.433Z,26.30
2018-12-06T06:42:09.286Z,20.20
2018-12-06T06:44:38.634Z,20.37
2018-12-06T06:47:06.934Z,23.80
2018-12-06T06:49:42.746Z,22.20
2018-12-06T06:52:17.527Z,23.20
2018-12-06T06:54:47.546Z,26.57
2018-12-06T06:57:24.486Z,23.63
2018-12-06T06:59:56.710Z,25.47
2018-12-06T07:02:36.762Z,24.07
2018-12-06T07:05:05.937Z,22.00
2018-12-06T07:07:40.908Z,24.97
2018-12-06T07:10:11.689Z,22.47
2018-12-06T07:12:40.970Z,24.47
2018-12-06T07:15:09.476Z,25.63
2018-12-06T07:17:37.757Z,25.10
2018-12-06T07:20:09.829Z,25.73
2018-12-06T07:22:41.356Z,24.03
2018-12-06T07:25:11.588Z,23.40
2018-12-06T07:27:47.489Z,25.93
2018-12-06T07:30:17.994Z,27.43
2018-12-06T07:32:49.649Z,27.03
2018-12-06T07:35:21.375Z,26.97
2018-12-06T07:37:53.149Z,26.17
2018-12-06T07:40:21.648Z,25.30
2018-12-06T07:42:54.728Z,27.47
2018-12-06T07:45:25.248Z,28.57
2018-12-06T07:47:53.584Z,27.30
2018-12-06T07:50:23.648Z,27.50
2018-12-06T07:52:52.048Z,25.97
2018-12-06T07:55:26.209Z,32.63
2018-12-06T07:57:54.429Z,30.67
2018-12-06T08:00:22.669Z,32.10
2018-12-06T08:02:54.008Z,29.63
2018-12-06T08:05:28.784Z,32.63
2018-12-06T08:07:56.956Z,31.57
2018-12-06T08:10:25.469Z,29.37
2018-12-06T08:12:53.808Z,29.43
2018-12-06T08:15:23.397Z,30.33
2018-12-06T08:17:52.188Z,27.00
2018-12-06T08:20:20.737Z,30.33
2018-12-06T08:22:49.728Z,29.43
2018-12-06T08:25:20.688Z,29.30
2018-12-06T08:27:49.724Z,29.17
2018-12-06T08:30:18.197Z,30.27
2018-12-06T08:32:46.838Z,31.10
2018-12-06T08:35:19.998Z,27.00
2018-12-06T08:37:48.402Z,22.97
2018-12-06T08:43:05.688Z,20.73
2018-12-06T08:45:34.396Z,18.33
2018-12-06T08:48:02.536Z,15.63
2018-12-06T08:50:30.816Z,12.67
2018-12-06T08:53:01.240Z,13.03
2018-12-06T08:55:29.676Z,11.00
2018-12-06T08:57:57.836Z,13.83
2018-12-06T09:00:26.137Z,16.57
2018-12-06T09:02:55.136Z,14.67
2018-12-06T09:05:23.957Z,14.27
2018-12-06T09:07:52.576Z,12.20
2018-12-06T09:10:21.356Z,15.43
2018-12-06T09:12:51.858Z,14.03
2018-12-06T09:15:20.368Z,15.03
2018-12-06T09:17:48.688Z,17.57
2018-12-06T09:20:16.928Z,18.63
2018-12-06T09:22:47.288Z,18.83
2018-12-06T09:25:20.998Z,19.77
2018-12-06T09:27:46.128Z,22.50
2018-12-06T09:30:14.472Z,21.60
2018-12-06T09:32:43.788Z,23.43
2018-12-06T09:35:12.071Z,26.57
2018-12-06T09:37:40.509Z,23.43
2018-12-06T09:40:08.757Z,24.47
2018-12-06T09:42:37.968Z,21.47
2018-12-06T09:45:07.356Z,25.90
2018-12-06T09:47:36.168Z,27.17
2018-12-06T09:50:05.437Z,26.47
2018-12-06T09:52:34.128Z,26.27
2018-12-06T09:55:03.347Z,23.97
2018-12-06T09:57:32.709Z,23.07
2018-12-06T10:00:07.554Z,21.87
2018-12-06T10:02:35.757Z,16.53
2018-12-06T10:05:04.669Z,21.20
2018-12-06T10:07:33.337Z,21.40
2018-12-06T10:10:06.808Z,23.40
2018-12-06T10:12:35.088Z,20.40
2018-12-06T10:15:04.950Z,22.20
2018-12-06T10:17:34.789Z,23.57
2018-12-06T10:20:03.168Z,25.73
2018-12-06T10:22:31.850Z,23.97
2018-12-06T10:25:00.669Z,24.20
2018-12-06T10:27:29.689Z,25.77
2018-12-06T10:29:58.509Z,26.83
2018-12-06T10:32:32.577Z,25.77
2018-12-06T10:35:02.560Z,26.93
2018-12-06T10:37:31.129Z,30.00
2018-12-06T10:39:59.451Z,26.67
2018-12-06T10:42:28.248Z,26.63
2018-12-06T10:45:00.848Z,28.97
2018-12-06T10:47:29.488Z,30.20
2018-12-06T10:49:58.029Z,27.90
2018-12-06T10:52:27.849Z,34.90
2018-12-06T10:54:56.316Z,31.60
2018-12-06T10:57:24.649Z,24.77
2018-12-06T10:59:53.272Z,26.13
2018-12-06T11:02:30.637Z,25.40
2018-12-06T11:04:58.989Z,26.33
2018-12-06T11:07:28.369Z,24.90
2018-12-06T11:09:56.529Z,21.53
2018-12-06T11:12:25.117Z,24.47
2018-12-06T11:14:53.417Z,25.60
2018-12-06T11:17:21.889Z,23.07
2018-12-06T11:19:50.292Z,23.80
2018-12-06T11:22:18.789Z,22.97
2018-12-06T11:24:46.957Z,21.97
2018-12-06T11:27:15.450Z,23.63
2018-12-06T11:29:43.930Z,19.10
2018-12-06T11:32:12.609Z,19.77
2018-12-06T11:34:40.869Z,17.97
2018-12-06T11:37:09.069Z,15.67
2018-12-06T11:39:37.489Z,15.47
2018-12-06T11:42:08.645Z,13.23
2018-12-06T11:44:36.949Z,16.17
2018-12-06T11:47:05.109Z,18.17
2018-12-06T11:49:33.637Z,22.20
2018-12-06T11:52:01.769Z,24.10
2018-12-06T11:54:30.004Z,31.47
2018-12-06T11:56:58.461Z,28.93
2018-12-06T11:59:26.798Z,31.23
2018-12-06T12:01:55.649Z,32.90
2018-12-06T12:04:23.933Z,31.60
2018-12-06T12:06:52.569Z,30.77
2018-12-06T12:09:21.190Z,28.27
2018-12-06T12:11:49.589Z,22.80
2018-12-06T12:14:17.969Z,23.60
2018-12-06T12:16:46.169Z,21.03
2018-12-06T12:19:14.489Z,19.37
2018-12-06T12:21:42.809Z,18.07
2018-12-06T12:24:11.257Z,19.53
2018-12-06T12:26:39.412Z,23.33
2018-12-06T12:29:07.969Z,21.37
2018-12-06T12:31:36.357Z,24.20
2018-12-06T12:34:05.230Z,25.77
2018-12-06T12:36:33.409Z,25.77
2018-12-06T12:39:01.698Z,23.87
2018-12-06T12:41:29.969Z,26.07
2018-12-06T12:43:58.321Z,22.23
2018-12-06T12:46:31.150Z,24.03
2018-12-06T12:48:59.638Z,18.77
2018-12-06T12:51:27.877Z,21.73
2018-12-06T12:53:56.097Z,21.93
2018-12-06T12:56:24.309Z,22.83
2018-12-06T12:58:52.661Z,22.70
2018-12-06T13:01:21.089Z,26.20
2018-12-06T13:03:49.377Z,19.77
2018-12-06T13:06:22.929Z,17.13
2018-12-06T13:08:51.213Z,20.17
2018-12-06T13:11:19.357Z,19.93
2018-12-06T13:13:47.529Z,24.27
2018-12-06T13:16:15.817Z,21.30
2018-12-06T13:18:44.129Z,23.43
2018-12-06T13:21:12.492Z,19.77
2018-12-06T13:23:45.529Z,22.27
2018-12-06T13:26:14.049Z,21.23
2018-12-06T13:28:43.409Z,26.53
2018-12-06T13:31:11.817Z,22.37
2018-12-06T13:33:40.317Z,20.00
2018-12-06T13:36:08.889Z,18.80
2018-12-06T13:38:41.429Z,20.67
2018-12-06T13:41:10.009Z,19.77
2018-12-06T13:43:38.629Z,16.63
2018-12-06T13:46:07.203Z,16.47
2018-12-06T13:48:45.409Z,15.03
2018-12-06T13:54:39.449Z,13.00
2018-12-06T14:00:03.749Z,15.67
2018-12-06T14:02:31.911Z,15.93
2018-12-06T14:05:00.218Z,17.83
2018-12-06T14:07:28.509Z,18.17
2018-12-06T14:09:56.797Z,20.13
2018-12-06T14:13:23.471Z,19.93
2018-12-06T14:15:50.291Z,24.93
2018-12-06T14:21:42.109Z,26.83
2018-12-06T14:24:10.889Z,27.77
2018-12-06T14:26:51.753Z,27.73
2018-12-06T14:29:24.591Z,28.03
2018-12-06T14:32:02.209Z,29.73
2018-12-06T14:34:32.057Z,27.23
2018-12-06T14:37:02.044Z,27.40
2018-12-06T14:39:32.850Z,32.57
2018-12-06T14:42:05.629Z,30.17
2018-12-06T14:44:34.124Z,32.80
2018-12-06T14:47:07.218Z,29.87
2018-12-06T14:49:37.297Z,29.43
2018-12-06T14:52:06.237Z,27.03
2018-12-06T14:54:35.649Z,33.77
2018-12-06T14:57:06.357Z,33.13
2018-12-06T14:59:42.730Z,29.97
2018-12-06T15:02:11.472Z,34.27
2018-12-06T15:04:56.817Z,35.87
2018-12-06T15:10:48.091Z,38.27
2018-12-06T15:13:27.371Z,38.47
2018-12-06T15:16:12.850Z,40.93
2018-12-06T15:21:49.229Z,37.07
2018-12-06T15:24:33.470Z,40.60
2018-12-06T15:27:02.069Z,39.57
2018-12-06T15:29:30.289Z,41.23
2018-12-06T15:32:06.757Z,41.13
2018-12-06T15:34:35.249Z,39.83
2018-12-06T15:37:04.088Z,37.37
2018-12-06T15:39:56.606Z,34.80
2018-12-06T15:42:49.089Z,33.40
2018-12-06T15:59:04.804Z,30.00
2018-12-06T16:28:59.976Z,27.17
2018-12-06T16:45:03.688Z,25.47
2018-12-06T17:01:05.765Z,22.80
2018-12-06T17:17:28.279Z,21.40
2018-12-06T17:26:01.997Z,17.17
2018-12-06T17:28:39.476Z,23.23
2018-12-06T17:31:12.457Z,26.07
2018-12-06T17:33:53.648Z,21.70
2018-12-06T17:36:29.349Z,25.40
2018-12-06T17:39:03.885Z,24.50
2018-12-06T17:41:37.309Z,22.07
2018-12-06T17:46:59.657Z,26.10
2018-12-06T17:49:40.349Z,28.57
2018-12-06T17:52:19.271Z,31.23
2018-12-06T17:55:05.508Z,24.27
2018-12-06T17:57:36.543Z,22.10
2018-12-06T18:00:15.416Z,24.70
2018-12-06T18:16:43.312Z,20.63
2018-12-06T21:51:04.345Z,22.77
2018-12-06T21:53:33.067Z,22.80
2018-12-06T21:56:02.297Z,25.83
2018-12-06T22:01:10.838Z,25.13
2018-12-06T22:03:39.658Z,26.63
2018-12-06T22:06:08.297Z,24.33
2018-12-06T22:08:36.761Z,25.70
2018-12-06T22:11:05.395Z,26.80
2018-12-06T22:13:33.765Z,28.07
2018-12-06T22:16:02.235Z,28.43
2018-12-06T22:18:30.709Z,20.37
2018-12-06T22:20:59.132Z,28.77
2018-12-06T22:23:27.614Z,31.47
2018-12-06T22:25:56.087Z,26.80
2018-12-06T22:28:24.675Z,33.53
2018-12-06T22:30:53.367Z,32.20
2018-12-06T22:33:22.035Z,35.53
2018-12-06T22:35:50.704Z,30.53
2018-12-06T22:38:19.847Z,29.33
2018-12-06T22:40:48.367Z,28.90
2018-12-06T22:43:17.265Z,27.47
2018-12-06T22:45:56.860Z,27.17
2018-12-06T22:48:25.532Z,27.63
2018-12-06T22:50:54.840Z,29.00
2018-12-06T22:53:23.472Z,26.90
2018-12-06T22:55:52.212Z,27.63
2018-12-06T22:58:21.662Z,27.23
2018-12-06T23:01:00.022Z,26.70
2018-12-06T23:03:28.397Z,28.17
2018-12-06T23:05:56.747Z,29.10
2018-12-06T23:08:25.102Z,26.77
2018-12-06T23:10:53.662Z,29.17
2018-12-06T23:13:22.527Z,28.70
2018-12-06T23:15:51.161Z,23.30
2018-12-06T23:18:19.619Z,25.80
2018-12-06T23:20:49.044Z,26.93
2018-12-06T23:23:17.596Z,25.90
2018-12-06T23:25:46.154Z,26.43
2018-12-06T23:28:14.600Z,26.73
2018-12-06T23:30:43.199Z,29.50
2018-12-06T23:33:12.169Z,27.60
2018-12-06T23:35:40.684Z,27.40
2018-12-06T23:38:09.130Z,28.63
2018-12-06T23:40:37.483Z,32.47
2018-12-06T23:43:06.059Z,26.67
2018-12-06T23:45:34.460Z,26.53
2018-12-06T23:48:02.860Z,22.80
